createdAt,value
2022-10-07T00:00:11.047Z,102490.03
2022-10-07T00:02:38.953Z,102540.81
2022-10-07T00:05:06.212Z,102639.22
2022-10-07T00:07:33.105Z,102557.50
2022-10-07T00:09:59.830Z,102671.81
2022-10-07T00:12:26.769Z,102479.75
2022-10-07T00:14:54.076Z,102595.22
2022-10-07T00:17:23.220Z,102662.88
2022-10-07T00:19:50.477Z,102569.19
2022-10-07T00:22:17.351Z,102466.53
2022-10-07T00:24:44.492Z,102549.97
2022-10-07T00:27:11.716Z,102451.59
2022-10-07T00:29:38.552Z,102477.88
2022-10-07T00:32:05.335Z,102422.50
2022-10-07T00:34:34.901Z,102645.72
2022-10-07T00:37:04.622Z,102651.16
2022-10-07T00:39:31.668Z,102659.25
2022-10-07T00:41:58.610Z,102523.47
2022-10-07T00:44:39.740Z,102504.50
2022-10-07T00:47:12.400Z,102571.47
2022-10-07T00:52:35.060Z,102510.09
2022-10-07T00:55:08.164Z,102641.25
2022-10-07T00:57:36.599Z,102440.06
2022-10-07T01:00:05.486Z,102424.59
2022-10-07T01:02:36.166Z,102630.97
2022-10-07T01:05:08.218Z,102419.78
2022-10-07T01:07:35.865Z,102627.81
2022-10-07T01:10:08.198Z,102500.75
2022-10-07T01:12:47.333Z,102559.34
2022-10-07T01:15:22.326Z,102599.09
2022-10-07T01:18:01.842Z,102516.06
2022-10-07T01:20:38.488Z,102441.78
2022-10-07T01:23:20.913Z,102506.97
2022-10-07T01:26:17.354Z,102589.78
2022-10-07T01:28:49.816Z,102565.00
2022-10-07T01:31:31.860Z,102385.59
2022-10-07T01:34:01.374Z,102559.66
2022-10-07T01:36:28.733Z,102541.38
2022-10-07T01:39:00.704Z,102497.72
2022-10-07T01:41:30.241Z,102372.75
2022-10-07T01:44:00.406Z,102357.59
2022-10-07T01:46:28.251Z,102552.66
2022-10-07T01:48:56.222Z,102478.13
2022-10-07T01:51:26.379Z,102341.09
2022-10-07T01:54:01.874Z,102420.69
2022-10-07T01:56:43.088Z,102478.81
2022-10-07T01:59:23.474Z,102537.44
2022-10-07T02:02:02.192Z,102430.44
2022-10-07T02:04:42.661Z,102343.44
2022-10-07T02:07:21.001Z,102320.47
2022-10-07T02:09:56.588Z,102506.88
2022-10-07T02:12:30.584Z,102380.53
2022-10-07T02:15:16.554Z,102337.56
2022-10-07T02:17:48.933Z,102359.94
2022-10-07T02:20:19.553Z,102479.91
2022-10-07T02:22:48.961Z,102498.75
2022-10-07T02:25:22.848Z,102337.00
2022-10-07T02:27:53.896Z,102342.25
2022-10-07T02:30:24.790Z,102456.19
2022-10-07T02:32:55.600Z,102273.25
2022-10-07T02:35:36.362Z,102322.72
2022-10-07T02:38:13.561Z,102445.53
2022-10-07T02:40:48.798Z,102338.25
2022-10-07T02:43:20.557Z,102270.28
2022-10-07T02:45:54.884Z,102395.22
2022-10-07T02:48:26.229Z,102413.34
2022-10-07T02:50:56.736Z,102376.28
2022-10-07T02:53:28.639Z,102442.47
2022-10-07T02:55:59.586Z,102392.66
2022-10-07T02:58:27.640Z,102448.00
2022-10-07T03:00:59.136Z,102437.19
2022-10-07T03:03:26.243Z,102437.50
2022-10-07T03:05:53.681Z,102410.63
2022-10-07T03:08:22.504Z,102427.53
2022-10-07T03:10:49.215Z,102245.38
2022-10-07T03:13:17.392Z,102387.69
2022-10-07T03:15:46.473Z,102202.66
2022-10-07T03:18:14.744Z,102372.53
2022-10-07T03:20:41.805Z,102271.81
2022-10-07T03:23:08.520Z,102237.13
2022-10-07T03:25:35.900Z,102412.72
2022-10-07T03:28:05.396Z,102301.13
2022-10-07T03:30:32.046Z,102244.00
2022-10-07T03:33:06.971Z,102326.94
2022-10-07T03:35:40.197Z,102199.94
2022-10-07T03:38:07.233Z,102358.63
2022-10-07T03:40:34.230Z,102241.78
2022-10-07T03:43:03.083Z,102333.53
2022-10-07T03:45:32.862Z,102386.84
2022-10-07T03:48:00.951Z,102184.97
2022-10-07T03:50:28.036Z,102293.47
2022-10-07T03:52:59.002Z,102352.34
2022-10-07T03:55:26.088Z,102308.25
2022-10-07T03:57:58.405Z,102368.00
2022-10-07T04:00:32.313Z,102380.75
2022-10-07T04:02:58.993Z,102380.75
2022-10-07T04:05:26.059Z,102370.84
2022-10-07T04:07:53.439Z,102347.31
2022-10-07T04:10:23.865Z,102373.69
2022-10-07T04:12:51.563Z,102361.09
2022-10-07T04:15:18.764Z,102373.59
2022-10-07T04:17:47.544Z,102364.53
2022-10-07T04:20:16.304Z,102324.03
2022-10-07T04:22:44.976Z,102366.28
2022-10-07T04:25:12.604Z,102372.66
2022-10-07T04:27:58.176Z,102367.03
2022-10-07T04:30:27.196Z,102209.34
2022-10-07T04:32:55.106Z,102236.91
2022-10-07T04:35:23.081Z,102366.56
2022-10-07T04:37:50.546Z,102353.59
2022-10-07T04:40:19.050Z,102304.97
2022-10-07T04:42:48.076Z,102155.44
2022-10-07T04:45:15.525Z,102213.78
2022-10-07T04:47:46.583Z,102308.81
2022-10-07T04:50:15.746Z,102353.06
2022-10-07T04:52:43.324Z,102321.28
2022-10-07T04:55:12.639Z,102184.38
2022-10-07T04:57:48.238Z,102212.28
2022-10-07T05:00:19.636Z,102219.19
2022-10-07T05:02:47.793Z,102336.28
2022-10-07T05:05:19.492Z,102316.16
2022-10-07T05:07:52.442Z,102330.06
2022-10-07T05:10:21.325Z,102187.69
2022-10-07T05:12:55.127Z,102163.34
2022-10-07T05:15:24.245Z,102292.97
2022-10-07T05:17:51.944Z,102325.81
2022-10-07T05:20:18.942Z,102220.00
2022-10-07T05:22:45.868Z,102204.31
2022-10-07T05:25:14.119Z,102218.44
2022-10-07T05:27:41.071Z,102318.28
2022-10-07T05:30:10.866Z,102324.66
2022-10-07T05:32:38.922Z,102201.47
2022-10-07T05:35:10.288Z,102275.78
2022-10-07T05:37:37.139Z,102247.19
2022-10-07T05:40:06.520Z,102132.31
2022-10-07T05:42:33.530Z,102324.66
2022-10-07T05:45:00.871Z,102254.72
2022-10-07T05:47:27.850Z,102138.59
2022-10-07T05:49:56.156Z,102316.66
2022-10-07T05:52:23.243Z,102308.88
2022-10-07T05:54:50.194Z,102310.66
2022-10-07T05:57:17.174Z,102316.66
2022-10-07T05:59:43.929Z,102316.66
2022-10-07T06:02:14.599Z,102314.53
2022-10-07T06:04:41.602Z,102315.00
2022-10-07T06:07:10.013Z,102312.31
2022-10-07T06:09:36.663Z,102321.59
2022-10-07T06:12:04.257Z,102235.81
2022-10-07T06:14:30.999Z,102294.41
2022-10-07T06:16:58.507Z,102248.41
2022-10-07T06:19:25.510Z,102316.78
2022-10-07T06:21:52.216Z,102324.44
2022-10-07T06:24:20.663Z,102324.66
2022-10-07T06:26:49.094Z,102317.38
2022-10-07T06:29:15.776Z,102321.25
2022-10-07T06:31:42.501Z,102319.38
2022-10-07T06:34:09.187Z,102321.38
2022-10-07T06:36:35.826Z,102317.16
2022-10-07T06:39:02.932Z,102323.75
2022-10-07T06:41:33.420Z,102316.81
2022-10-07T06:44:01.593Z,102303.03
2022-10-07T06:46:29.811Z,102254.22
2022-10-07T06:48:56.685Z,102268.44
2022-10-07T06:51:23.503Z,102140.91
2022-10-07T06:53:52.552Z,102332.44
2022-10-07T06:56:19.511Z,102253.75
2022-10-07T06:58:47.675Z,102326.00
2022-10-07T07:01:14.657Z,102270.09
2022-10-07T07:06:25.211Z,102334.81
2022-10-07T07:11:56.632Z,102214.84
2022-10-07T07:15:14.503Z,102277.63
2022-10-07T07:17:41.385Z,102303.59
2022-10-07T07:20:11.370Z,102243.66
2022-10-07T07:22:42.730Z,102133.16
2022-10-07T07:25:09.622Z,102313.59
2022-10-07T07:28:06.440Z,102094.22
2022-10-07T07:30:35.400Z,102177.91
2022-10-07T07:33:01.983Z,102219.41
2022-10-07T07:35:30.264Z,102307.56
2022-10-07T07:37:56.963Z,102307.09
2022-10-07T07:40:23.717Z,102250.41
2022-10-07T07:42:50.584Z,102168.59
2022-10-07T07:45:17.749Z,102306.25
2022-10-07T08:20:06.862Z,102278.13
2022-10-07T08:23:07.205Z,102100.13
2022-10-07T08:25:34.574Z,102202.44
2022-10-07T08:28:06.712Z,102206.75
2022-10-07T08:48:05.292Z,102253.41
2022-10-07T08:54:03.337Z,102202.22
2022-10-07T08:56:38.387Z,102082.91
2022-10-07T09:22:16.112Z,102224.59
2022-10-07T09:52:58.577Z,102038.47
2022-10-07T09:55:32.296Z,102125.56
2022-10-07T09:58:07.639Z,102152.31
2022-10-07T10:00:49.367Z,102120.13
2022-10-07T10:03:29.465Z,102009.41
2022-10-07T10:06:00.446Z,102182.69
2022-10-07T10:08:33.242Z,102041.63
2022-10-07T10:11:06.345Z,101989.03
2022-10-07T10:13:35.450Z,102145.91
2022-10-07T10:16:05.136Z,102146.44
2022-10-07T10:21:31.185Z,102156.81
2022-10-07T10:24:12.464Z,102155.69
2022-10-07T10:26:54.490Z,102070.38
2022-10-07T10:29:48.276Z,102126.50
2022-10-07T10:32:34.440Z,102138.72
2022-10-07T10:35:14.704Z,102070.28
2022-10-07T10:38:09.811Z,101966.75
2022-10-07T10:41:02.441Z,102063.38
2022-10-07T10:43:47.030Z,102052.47
2022-10-07T10:49:48.352Z,102101.16
2022-10-07T10:52:48.774Z,101944.03
2022-10-07T10:55:55.120Z,101956.78
2022-10-07T11:02:18.774Z,102075.13
2022-10-07T11:05:24.068Z,101986.84
2022-10-07T11:08:18.826Z,101992.78
2022-10-07T11:11:00.278Z,102071.22
2022-10-07T11:13:36.578Z,102031.97
2022-10-07T11:16:33.709Z,102090.19
2022-10-07T11:20:03.122Z,102012.59
2022-10-07T11:23:09.412Z,102085.63
2022-10-07T11:26:10.622Z,102085.53
2022-10-07T11:29:03.236Z,102037.91
2022-10-07T11:31:49.056Z,102048.16
2022-10-07T11:34:29.702Z,102015.16
2022-10-07T11:37:59.724Z,101905.91
2022-10-07T11:40:49.662Z,102019.03
2022-10-07T11:43:38.407Z,102036.28
2022-10-07T11:49:11.790Z,102048.16
2022-10-07T11:51:51.369Z,102052.69
2022-10-07T11:54:34.350Z,101926.22
2022-10-07T12:08:06.676Z,102032.03
2022-10-07T12:15:09.200Z,102021.34
2022-10-07T12:18:32.128Z,102013.44
2022-10-07T12:21:27.303Z,101948.81
2022-10-07T12:25:00.365Z,101932.53
2022-10-07T12:27:32.741Z,101917.97
2022-10-07T12:31:17.885Z,101850.00
2022-10-07T12:34:22.077Z,101870.47
2022-10-07T12:44:04.832Z,101976.69
2022-10-07T12:47:09.119Z,101963.00
2022-10-07T12:53:05.887Z,101934.72
2022-10-07T12:55:48.086Z,101961.88
2022-10-07T12:58:58.847Z,101912.00
2022-10-07T13:09:39.114Z,101790.78
2022-10-07T13:16:41.396Z,101898.38
2022-10-07T13:19:56.594Z,101935.56
2022-10-07T13:23:27.277Z,101932.28
2022-10-07T13:33:33.746Z,101754.81
2022-10-07T13:37:07.088Z,101746.16
2022-10-07T13:39:48.153Z,101842.72
2022-10-07T13:42:21.361Z,101788.78
2022-10-07T13:45:07.773Z,101868.50
2022-10-07T13:47:59.002Z,101897.06
2022-10-07T13:50:37.380Z,101743.56
2022-10-07T13:53:20.779Z,101814.91
2022-10-07T13:59:18.557Z,101824.47
2022-10-07T14:02:15.679Z,101798.94
2022-10-07T14:05:25.249Z,101878.44
2022-10-07T14:08:25.742Z,101729.06
2022-10-07T14:14:44.242Z,101850.75
2022-10-07T14:21:20.420Z,101698.28
2022-10-07T14:30:53.284Z,101754.25
2022-10-07T14:40:31.777Z,101798.38
2022-10-07T14:43:39.616Z,101782.41
2022-10-07T14:46:31.707Z,101667.56
2022-10-07T14:49:53.821Z,101758.19
2022-10-07T14:52:52.837Z,101841.72
2022-10-07T14:55:36.151Z,101660.22
2022-10-07T14:58:32.261Z,101826.25
2022-10-07T15:01:11.214Z,101785.59
2022-10-07T15:04:19.677Z,101643.06
2022-10-07T15:07:19.019Z,101782.63
2022-10-07T15:10:13.892Z,101822.34
2022-10-07T15:16:37.066Z,101642.94
2022-10-07T15:20:25.046Z,101614.13
2022-10-07T15:34:22.029Z,101780.44
2022-10-07T15:40:27.600Z,101621.56
2022-10-07T15:47:00.273Z,101605.66
2022-10-07T15:49:59.710Z,101622.59
2022-10-07T15:52:30.770Z,101577.97
2022-10-07T15:55:07.250Z,101618.44
2022-10-07T16:01:06.450Z,101597.34
2022-10-07T16:04:05.233Z,101584.44
2022-10-07T16:07:11.159Z,101661.22
2022-10-07T16:20:02.111Z,101573.72
2022-10-07T16:42:42.561Z,101727.75
2022-10-07T16:45:19.361Z,101544.69
2022-10-07T16:47:54.504Z,101574.28
2022-10-07T16:56:58.836Z,101618.84
2022-10-07T16:59:33.515Z,101569.38
2022-10-07T17:02:33.279Z,101716.03
2022-10-07T17:05:05.594Z,101557.72
2022-10-07T17:07:53.050Z,101589.00
2022-10-07T17:10:30.117Z,101670.16
2022-10-07T17:19:39.976Z,101720.53
2022-10-07T17:32:45.386Z,101718.19
2022-10-07T17:35:28.030Z,101710.34
2022-10-07T17:39:09.989Z,101677.72
2022-10-07T17:41:57.641Z,101647.88
2022-10-07T17:48:04.197Z,101720.94
2022-10-07T17:50:54.729Z,101665.75
2022-10-07T18:02:21.066Z,101558.78
2022-10-07T18:05:15.036Z,101641.91
2022-10-07T18:09:09.493Z,101516.97
2022-10-07T18:15:13.298Z,101622.34
2022-10-07T18:18:26.175Z,101700.03
2022-10-07T18:24:16.377Z,101610.94
2022-10-07T18:27:02.380Z,101569.13
2022-10-07T18:30:14.069Z,101573.50
2022-10-07T18:33:01.541Z,101594.66
2022-10-07T18:35:51.958Z,101582.75
2022-10-07T18:38:41.441Z,101601.75
2022-10-07T18:41:28.688Z,101490.16
2022-10-07T18:44:11.952Z,101535.50
2022-10-07T18:46:51.599Z,101586.03
2022-10-07T18:49:31.246Z,101501.28
2022-10-07T18:52:18.498Z,101504.00
2022-10-07T18:54:56.159Z,101494.78
2022-10-07T18:57:26.959Z,101546.09
2022-10-07T19:00:05.998Z,101649.63
2022-10-07T19:02:43.239Z,101483.91
2022-10-07T19:05:26.560Z,101552.88
2022-10-07T19:08:27.995Z,101470.34
2022-10-07T19:11:24.600Z,101597.50
2022-10-07T19:14:21.427Z,101595.31
2022-10-07T19:17:11.959Z,101503.75
2022-10-07T19:22:53.645Z,101661.09
2022-10-07T19:25:40.198Z,101479.06
2022-10-07T19:28:28.355Z,101565.44
2022-10-07T19:30:59.495Z,101658.13
2022-10-07T19:33:54.554Z,101594.25
2022-10-07T19:36:31.459Z,101642.09
2022-10-07T19:54:06.944Z,101632.59
2022-10-07T19:57:05.056Z,101590.41
2022-10-07T19:59:56.757Z,101478.50
2022-10-07T20:03:08.047Z,101613.81
2022-10-07T20:06:02.916Z,101400.25
2022-10-07T20:11:39.202Z,101502.38
2022-10-07T20:14:17.376Z,101509.47
2022-10-07T20:17:03.429Z,101590.16
2022-10-07T20:19:51.778Z,101587.44
2022-10-07T20:22:31.949Z,101405.13
2022-10-07T20:26:26.875Z,101395.91
2022-10-07T20:28:39.580Z,101375.28
2022-10-07T20:58:59.239Z,101430.16
2022-10-07T21:01:26.233Z,101468.19
2022-10-07T21:03:54.738Z,101564.34
2022-10-07T21:04:05.884Z,101517.59
2022-10-07T21:06:21.579Z,101516.53
2022-10-07T21:08:56.739Z,101473.06
2022-10-07T21:11:33.880Z,101474.97
2022-10-07T21:14:04.164Z,101563.78
2022-10-07T21:16:50.379Z,101554.81
2022-10-07T21:19:30.575Z,101502.94
2022-10-07T21:22:21.125Z,101536.88
2022-10-07T21:24:58.142Z,101346.00
2022-10-07T21:27:36.793Z,101530.91
2022-10-07T21:30:16.356Z,101473.56
2022-10-07T21:33:03.615Z,101524.66
2022-10-07T21:35:58.331Z,101411.97
2022-10-07T21:41:48.177Z,101325.63
2022-10-07T21:44:21.752Z,101399.19
2022-10-07T21:46:52.435Z,101478.47
2022-10-07T21:49:42.988Z,101442.34
2022-10-07T21:52:28.247Z,101488.25
2022-10-07T21:55:15.282Z,101507.22
2022-10-07T22:07:29.993Z,101330.25
2022-10-07T22:10:01.753Z,101326.72
2022-10-07T22:12:33.270Z,101406.78
2022-10-07T22:15:00.127Z,101493.66
2022-10-07T22:17:34.740Z,101454.56
2022-10-07T22:20:16.356Z,101287.38
2022-10-07T22:22:48.947Z,101500.72
2022-10-07T22:25:21.336Z,101407.34
2022-10-07T22:28:18.243Z,101304.75
2022-10-07T22:30:57.299Z,101411.16
2022-10-07T22:33:26.411Z,101406.25
2022-10-07T22:36:00.004Z,101316.66
2022-10-07T22:38:38.430Z,101341.66
2022-10-07T22:41:06.271Z,101462.72
2022-10-07T22:43:40.368Z,101431.78
2022-10-07T22:46:25.619Z,101497.50
2022-10-07T22:49:00.883Z,101367.16
2022-10-07T22:51:30.591Z,101569.22
2022-10-07T22:54:08.152Z,101499.16
2022-10-07T22:56:53.334Z,101517.88
2022-10-07T22:59:31.850Z,101561.34
2022-10-07T23:02:10.362Z,101561.63
2022-10-07T23:04:49.172Z,101349.22
2022-10-07T23:07:17.329Z,101407.91
2022-10-07T23:09:51.007Z,101511.34
2022-10-07T23:12:22.037Z,101343.78
2022-10-07T23:14:55.853Z,101351.13
2022-10-07T23:17:34.624Z,101533.34
2022-10-07T23:20:22.121Z,101330.22
2022-10-07T23:22:59.834Z,101333.25
2022-10-07T23:25:26.768Z,101390.53
2022-10-07T23:27:57.644Z,101442.13
2022-10-07T23:30:32.382Z,101343.28
2022-10-07T23:33:02.702Z,101394.06
2022-10-07T23:35:40.250Z,101389.72
2022-10-07T23:38:14.893Z,101382.88
2022-10-07T23:41:04.458Z,101420.41
2022-10-07T23:43:40.546Z,101507.81
2022-10-07T23:46:13.002Z,101465.72
2022-10-07T23:49:02.387Z,101421.47
2022-10-07T23:51:49.548Z,101446.47
2022-10-07T23:54:19.085Z,101463.53
2022-10-07T23:56:46.026Z,101313.13
2022-10-07T23:59:17.894Z,101328.91
